Time;durP1;ratioP1;P1;durP2;ratioP2;P2;SDS_P1;SDS_P2;PMS_P1;PMS_P2;Temp;Humidity;BMP_temperature;BMP_pressure;BME280_temperature;BME280_humidity;BME280_pressure;Samples;Min_cycle;Max_cycle;Signal;HPM_P1;HPM_P2
2023/07/09 00:01:18;;;;;;;31.73;28.83;;;18.20;99.90;;;;;;4993834;28;20069;-73
2023/07/09 00:03:51;;;;;;;28.80;26.33;;;18.10;99.90;;;;;;4989222;28;20419;-74
2023/07/09 00:06:19;;;;;;;36.42;32.17;;;18.00;99.90;;;;;;4990017;28;20053;-73
2023/07/09 00:08:49;;;;;;;34.42;30.85;;;17.90;99.90;;;;;;4990603;28;20077;-74
2023/07/09 00:11:16;;;;;;;36.72;32.85;;;17.80;99.90;;;;;;4988646;28;20050;-74
2023/07/09 00:13:44;;;;;;;31.38;28.45;;;17.90;99.90;;;;;;4994644;28;20117;-73
2023/07/09 00:16:29;;;;;;;34.10;30.90;;;17.90;99.90;;;;;;4992477;28;20042;-73
2023/07/09 00:18:56;;;;;;;30.95;28.15;;;17.90;99.90;;;;;;4990633;28;20049;-73
2023/07/09 00:21:23;;;;;;;30.00;27.20;;;18.00;99.90;;;;;;4991344;28;20054;-73
2023/07/09 00:23:51;;;;;;;31.98;29.00;;;17.90;99.90;;;;;;4991827;28;20045;-73
2023/07/09 00:26:26;;;;;;;30.92;28.13;;;17.70;99.90;;;;;;4996141;28;20050;-73
2023/07/09 00:28:52;;;;;;;29.00;26.73;;;17.60;99.90;;;;;;4998430;28;20057;-73
2023/07/09 00:31:19;;;;;;;28.67;26.23;;;17.60;99.90;;;;;;4994687;28;20049;-72
2023/07/09 00:33:47;;;;;;;32.40;29.35;;;17.60;99.90;;;;;;4997479;28;20030;-73
2023/07/09 00:36:36;;;;;;;27.40;24.98;;;17.50;99.90;;;;;;4998563;28;20072;-73
2023/07/09 00:39:04;;;;;;;28.30;25.90;;;17.30;99.90;;;;;;5002797;28;20287;-73
2023/07/09 00:41:35;;;;;;;28.02;25.58;;;17.20;99.90;;;;;;4999870;28;20041;-73
2023/07/09 00:44:20;;;;;;;33.42;30.20;;;17.30;99.90;;;;;;4993183;28;20049;-72
2023/07/09 00:46:50;;;;;;;27.88;25.50;;;17.50;99.90;;;;;;4995549;28;20112;-72
2023/07/09 00:49:33;;;;;;;26.80;24.42;;;17.40;99.90;;;;;;4994747;28;20046;-72
2023/07/09 00:52:03;;;;;;;26.52;24.42;;;17.40;99.90;;;;;;4994172;28;20057;-72
2023/07/09 00:54:41;;;;;;;29.92;25.73;;;17.30;99.90;;;;;;4995145;28;20043;-73
2023/07/09 00:57:17;;;;;;;26.85;24.85;;;17.30;99.90;;;;;;4993823;28;20517;-72
2023/07/09 00:59:48;;;;;;;26.88;24.85;;;17.30;99.90;;;;;;4996219;28;20520;-72
2023/07/09 01:02:23;;;;;;;27.35;25.13;;;17.20;99.90;;;;;;4996579;28;20680;-72
2023/07/09 01:04:56;;;;;;;28.05;25.50;;;17.20;99.90;;;;;;4990616;28;20069;-73
2023/07/09 01:07:23;;;;;;;27.30;25.20;;;17.30;99.90;;;;;;4988643;28;20060;-73
2023/07/09 01:09:50;;;;;;;26.33;24.52;;;17.10;99.90;;;;;;4992088;28;20041;-72
2023/07/09 01:12:20;;;;;;;27.10;24.90;;;17.00;99.90;;;;;;4988928;28;20042;-73
2023/07/09 01:14:51;;;;;;;26.35;24.35;;;17.00;99.90;;;;;;4995575;28;20114;-73
2023/07/09 01:17:18;;;;;;;26.98;24.98;;;17.00;99.90;;;;;;4987750;28;20037;-73
2023/07/09 01:19:50;;;;;;;27.05;24.95;;;17.00;99.90;;;;;;4993464;28;20062;-73
2023/07/09 01:22:19;;;;;;;27.00;24.80;;;17.00;99.90;;;;;;4990765;28;20508;-73
2023/07/09 01:25:05;;;;;;;26.52;24.42;;;17.00;99.90;;;;;;4989046;28;20394;-72
2023/07/09 01:27:37;;;;;;;26.90;24.85;;;17.00;99.90;;;;;;4990033;28;20057;-72
2023/07/09 01:30:11;;;;;;;25.77;23.88;;;17.00;99.90;;;;;;4997783;28;20132;-73
2023/07/09 01:32:38;;;;;;;25.60;23.55;;;16.90;99.90;;;;;;4986677;28;20038;-73
2023/07/09 01:35:06;;;;;;;26.73;24.60;;;16.90;99.90;;;;;;4993794;28;20054;-73
2023/07/09 01:37:37;;;;;;;26.65;24.55;;;16.80;99.90;;;;;;4987048;28;20093;-73
2023/07/09 01:40:06;;;;;;;25.73;23.73;;;16.70;99.90;;;;;;4991075;28;20045;-73
2023/07/09 01:42:55;;;;;;;26.38;24.05;;;16.70;99.90;;;;;;4990391;28;20100;-73
2023/07/09 01:45:22;;;;;;;25.88;23.48;;;16.70;99.90;;;;;;4985537;28;20038;-72
2023/07/09 01:47:50;;;;;;;26.15;23.90;;;16.80;99.90;;;;;;4985687;28;20056;-73
2023/07/09 01:50:18;;;;;;;25.38;23.40;;;16.80;99.90;;;;;;4991791;28;20493;-73
2023/07/09 01:52:45;;;;;;;26.08;23.85;;;16.70;99.90;;;;;;4990090;28;20065;-72
2023/07/09 01:55:16;;;;;;;24.15;22.13;;;16.60;99.90;;;;;;4990645;28;20125;-73
2023/07/09 01:57:45;;;;;;;25.75;23.73;;;16.70;99.90;;;;;;4996638;28;20061;-71
2023/07/09 02:00:16;;;;;;;25.88;23.58;;;16.70;99.90;;;;;;4996218;28;20045;-72
2023/07/09 02:02:46;;;;;;;25.83;23.60;;;16.70;99.90;;;;;;4992946;28;20057;-72
2023/07/09 02:05:16;;;;;;;24.45;22.70;;;16.70;99.90;;;;;;4993302;28;20045;-73
2023/07/09 02:07:46;;;;;;;25.83;23.83;;;16.60;99.90;;;;;;4996532;28;20042;-74
2023/07/09 02:10:14;;;;;;;26.05;23.80;;;16.60;99.90;;;;;;4991145;28;20066;-74
2023/07/09 02:12:41;;;;;;;25.10;23.23;;;16.60;99.90;;;;;;4992536;28;20042;-75
2023/07/09 02:15:10;;;;;;;25.10;23.20;;;16.60;99.90;;;;;;4989590;28;20092;-75
2023/07/09 02:17:36;;;;;;;26.02;24.13;;;16.40;99.90;;;;;;4991701;28;20504;-72
2023/07/09 02:20:06;;;;;;;26.50;24.15;;;16.30;99.90;;;;;;4994351;28;20133;-73
2023/07/09 02:22:34;;;;;;;26.30;24.02;;;16.30;99.90;;;;;;4994400;28;20053;-73
2023/07/09 02:25:01;;;;;;;25.20;23.20;;;16.20;99.90;;;;;;4993856;28;20037;-74
2023/07/09 02:27:28;;;;;;;25.90;23.85;;;16.40;99.90;;;;;;4987017;28;20045;-72
2023/07/09 02:29:55;;;;;;;26.02;23.90;;;16.40;99.90;;;;;;4990839;28;20140;-73
2023/07/09 02:32:25;;;;;;;25.13;23.23;;;16.40;99.90;;;;;;4992277;28;20627;-75
2023/07/09 02:34:53;;;;;;;25.75;23.67;;;16.40;99.90;;;;;;4999903;28;20129;-74
2023/07/09 02:37:22;;;;;;;25.70;23.52;;;16.40;99.90;;;;;;4989309;28;20100;-73
2023/07/09 02:39:50;;;;;;;25.67;23.40;;;16.40;99.90;;;;;;4993680;28;20042;-71
2023/07/09 02:42:18;;;;;;;25.40;23.30;;;16.40;99.90;;;;;;4991039;28;20758;-73
2023/07/09 02:44:47;;;;;;;25.73;23.60;;;16.40;99.90;;;;;;4994843;28;20060;-73
2023/07/09 02:47:14;;;;;;;25.70;23.63;;;16.30;99.90;;;;;;4989355;28;20034;-73
2023/07/09 02:49:41;;;;;;;25.65;23.50;;;16.30;99.90;;;;;;4989142;28;20053;-73
2023/07/09 02:52:09;;;;;;;25.75;23.58;;;16.20;99.90;;;;;;4989032;28;20066;-72
2023/07/09 02:54:35;;;;;;;25.77;23.42;;;16.10;99.90;;;;;;4991757;28;20473;-73
2023/07/09 02:57:02;;;;;;;25.92;23.60;;;16.10;99.90;;;;;;4991604;28;20045;-72
2023/07/09 02:59:30;;;;;;;25.13;23.20;;;16.20;99.90;;;;;;4991760;28;20133;-73
2023/07/09 03:01:57;;;;;;;25.10;23.10;;;16.10;99.90;;;;;;4995487;28;20049;-72
2023/07/09 03:04:24;;;;;;;25.13;23.15;;;16.10;99.90;;;;;;4988141;28;20050;-73
2023/07/09 03:06:52;;;;;;;24.92;23.15;;;16.00;99.90;;;;;;4990738;28;20547;-72
2023/07/09 03:09:20;;;;;;;24.15;22.35;;;16.00;99.90;;;;;;4988167;28;20038;-72
2023/07/09 03:11:48;;;;;;;24.60;22.65;;;15.90;99.90;;;;;;4992383;28;20642;-72
2023/07/09 03:14:15;;;;;;;23.13;21.33;;;15.80;99.90;;;;;;4997441;28;20049;-72
2023/07/09 03:16:42;;;;;;;25.55;23.33;;;15.80;99.90;;;;;;4994416;28;20910;-71
2023/07/09 03:19:10;;;;;;;23.52;21.58;;;15.90;99.90;;;;;;5013870;28;20102;-71
2023/07/09 03:21:37;;;;;;;23.13;21.15;;;15.90;99.90;;;;;;5009424;28;20057;-73
2023/07/09 03:24:04;;;;;;;23.85;21.90;;;15.90;99.90;;;;;;5008855;28;20054;-72
2023/07/09 03:26:31;;;;;;;24.52;22.52;;;15.90;99.90;;;;;;4997813;28;20099;-75
2023/07/09 03:28:58;;;;;;;23.80;21.75;;;15.90;99.90;;;;;;4994160;28;20058;-72
2023/07/09 03:31:25;;;;;;;22.90;21.17;;;15.90;99.90;;;;;;4989023;28;20111;-72
2023/07/09 03:33:53;;;;;;;24.83;22.77;;;15.90;99.90;;;;;;4985619;28;20060;-72
2023/07/09 03:36:20;;;;;;;23.50;21.50;;;15.80;99.90;;;;;;4989461;28;20061;-73
2023/07/09 03:38:47;;;;;;;26.88;24.88;;;15.90;99.90;;;;;;4993497;28;20041;-74
2023/07/09 03:41:14;;;;;;;26.85;24.85;;;16.00;99.90;;;;;;4993782;28;20107;-74
2023/07/09 03:43:41;;;;;;;25.50;23.63;;;15.90;99.90;;;;;;4988021;28;20046;-73
2023/07/09 03:46:08;;;;;;;26.63;24.30;;;16.00;99.90;;;;;;4993474;28;20042;-75
2023/07/09 03:48:34;;;;;;;26.00;24.08;;;16.00;99.90;;;;;;4981920;28;20137;-74
2023/07/09 03:51:01;;;;;;;27.05;24.85;;;16.10;99.90;;;;;;4988110;28;20042;-74
2023/07/09 03:53:28;;;;;;;26.48;24.48;;;16.10;99.90;;;;;;4993034;28;20144;-73
2023/07/09 03:55:56;;;;;;;26.42;24.50;;;16.10;99.90;;;;;;4991302;28;20041;-73
2023/07/09 03:58:24;;;;;;;25.42;23.63;;;16.00;99.90;;;;;;4996608;28;20057;-74
2023/07/09 04:00:51;;;;;;;26.50;24.35;;;16.00;99.90;;;;;;4991183;28;20042;-73
2023/07/09 04:03:18;;;;;;;25.83;23.67;;;16.10;99.90;;;;;;4998659;28;20053;-73
2023/07/09 04:05:44;;;;;;;24.67;22.77;;;16.20;99.90;;;;;;4992772;28;20398;-73
2023/07/09 04:08:11;;;;;;;26.45;24.33;;;16.00;99.90;;;;;;4996874;28;20114;-74
2023/07/09 04:10:38;;;;;;;24.55;22.55;;;16.00;99.90;;;;;;4993767;28;20045;-74
2023/07/09 04:13:05;;;;;;;25.50;23.52;;;16.10;99.90;;;;;;4998695;28;20034;-73
2023/07/09 04:15:32;;;;;;;24.95;22.92;;;16.10;99.90;;;;;;4991920;28;20042;-73
2023/07/09 04:17:59;;;;;;;25.55;23.45;;;16.20;99.90;;;;;;4992816;28;20042;-74
2023/07/09 04:20:27;;;;;;;25.17;23.27;;;16.40;99.90;;;;;;4993910;28;20034;-73
2023/07/09 04:22:54;;;;;;;25.42;23.05;;;16.40;99.90;;;;;;4993974;28;20073;-73
2023/07/09 04:25:21;;;;;;;23.73;21.98;;;16.40;99.90;;;;;;4994951;28;20069;-73
2023/07/09 04:27:50;;;;;;;25.30;23.38;;;16.60;99.90;;;;;;4996013;28;20051;-73
2023/07/09 04:30:17;;;;;;;26.95;24.42;;;16.60;99.90;;;;;;4987482;28;20045;-73
2023/07/09 04:32:44;;;;;;;26.80;24.63;;;16.60;99.90;;;;;;4989502;28;20053;-73
2023/07/09 04:35:13;;;;;;;26.40;24.30;;;16.70;99.90;;;;;;5000840;28;20038;-73
2023/07/09 04:37:40;;;;;;;27.00;24.92;;;16.70;99.90;;;;;;4989460;28;20105;-74
2023/07/09 04:40:10;;;;;;;25.98;23.92;;;16.90;99.90;;;;;;4990383;28;20034;-73
2023/07/09 04:42:39;;;;;;;27.15;24.73;;;17.00;99.90;;;;;;4988506;28;20117;-74
2023/07/09 04:45:07;;;;;;;27.33;25.13;;;17.40;99.90;;;;;;4994706;28;20038;-73
2023/07/09 04:47:35;;;;;;;29.50;27.02;;;17.60;99.90;;;;;;4970831;28;20157;-72
2023/07/09 04:50:03;;;;;;;28.27;26.17;;;18.00;99.90;;;;;;4973443;28;20401;-73
2023/07/09 04:52:30;;;;;;;29.35;27.08;;;18.10;99.90;;;;;;4968828;28;20053;-73
2023/07/09 04:54:58;;;;;;;27.08;25.13;;;18.40;99.90;;;;;;4967407;28;20049;-73
2023/07/09 04:57:26;;;;;;;28.42;26.05;;;18.50;99.90;;;;;;4970400;28;20035;-73
2023/07/09 04:59:54;;;;;;;28.90;26.70;;;18.70;99.90;;;;;;4968295;28;20038;-73
2023/07/09 05:02:21;;;;;;;29.92;27.75;;;18.80;99.90;;;;;;4971130;28;20044;-73
2023/07/09 05:04:48;;;;;;;29.75;27.55;;;19.00;99.90;;;;;;4968820;28;20035;-72
2023/07/09 05:07:15;;;;;;;29.45;27.35;;;19.00;99.90;;;;;;4973355;28;20652;-74
2023/07/09 05:09:41;;;;;;;30.55;28.35;;;19.20;99.90;;;;;;4971140;28;20118;-73
2023/07/09 05:12:09;;;;;;;30.83;28.52;;;19.30;99.90;;;;;;4974096;28;21684;-73
2023/07/09 05:14:35;;;;;;;30.42;28.02;;;19.60;99.90;;;;;;4975350;28;20051;-73
2023/07/09 05:17:04;;;;;;;31.48;29.27;;;19.80;99.90;;;;;;4976894;28;20050;-73
2023/07/09 05:19:31;;;;;;;31.25;28.85;;;20.20;99.90;;;;;;4973358;28;20054;-72
2023/07/09 05:21:58;;;;;;;30.83;28.73;;;20.60;99.90;;;;;;4971075;28;20080;-73
2023/07/09 05:24:25;;;;;;;30.67;28.67;;;20.70;99.90;;;;;;4967569;28;20064;-73
2023/07/09 05:26:55;;;;;;;30.08;27.98;;;20.80;99.90;;;;;;4967855;28;20050;-74
2023/07/09 05:29:23;;;;;;;31.13;28.85;;;20.90;99.90;;;;;;4976138;28;20085;-73
2023/07/09 05:31:49;;;;;;;30.27;27.90;;;21.10;99.90;;;;;;4978923;28;20054;-72
2023/07/09 05:34:16;;;;;;;30.40;27.92;;;21.30;99.90;;;;;;4979598;28;20688;-74
2023/07/09 05:36:43;;;;;;;30.77;28.38;;;21.50;99.90;;;;;;4970601;28;20038;-73
2023/07/09 05:39:10;;;;;;;30.92;28.83;;;21.60;99.90;;;;;;4974174;28;20117;-73
2023/07/09 05:41:36;;;;;;;31.98;29.10;;;21.40;99.90;;;;;;4971921;28;20517;-73
2023/07/09 05:44:03;;;;;;;29.58;27.58;;;21.40;99.90;;;;;;4972491;28;20068;-73
2023/07/09 05:46:36;;;;;;;30.88;28.38;;;21.30;99.90;;;;;;4971158;28;20062;-73
2023/07/09 05:49:06;;;;;;;30.88;28.42;;;21.30;99.90;;;;;;4982191;28;20378;-73
2023/07/09 05:51:33;;;;;;;30.67;28.30;;;21.40;99.90;;;;;;4972209;28;20039;-73
2023/07/09 05:54:00;;;;;;;31.23;29.02;;;21.70;99.90;;;;;;4972902;28;20425;-74
2023/07/09 05:56:27;;;;;;;30.15;27.98;;;22.00;99.90;;;;;;4970795;28;20053;-72
2023/07/09 05:58:54;;;;;;;30.00;27.73;;;22.20;99.90;;;;;;4971656;28;20633;-74
2023/07/09 06:01:21;;;;;;;29.27;27.20;;;22.50;99.90;;;;;;4981301;28;20046;-73
2023/07/09 06:03:47;;;;;;;29.83;27.73;;;22.90;99.90;;;;;;4972330;28;20050;-73
2023/07/09 06:06:15;;;;;;;29.10;27.17;;;23.30;99.90;;;;;;4979205;28;20045;-73
2023/07/09 06:08:42;;;;;;;30.60;28.60;;;23.60;99.90;;;;;;4970298;28;20050;-73
2023/07/09 06:11:08;;;;;;;29.15;27.30;;;23.90;99.90;;;;;;4981624;28;20054;-73
2023/07/09 06:13:35;;;;;;;30.17;27.98;;;24.10;99.90;;;;;;4970212;28;20054;-74
2023/07/09 06:16:02;;;;;;;31.88;29.77;;;24.10;99.90;;;;;;4978480;28;20072;-74
2023/07/09 06:18:30;;;;;;;32.33;30.23;;;24.30;99.90;;;;;;4979130;28;20405;-73
2023/07/09 06:21:00;;;;;;;33.10;30.98;;;24.60;99.90;;;;;;4971974;28;20621;-74
2023/07/09 06:23:27;;;;;;;33.35;31.15;;;25.00;99.90;;;;;;4971071;28;20120;-73
2023/07/09 06:25:54;;;;;;;32.70;30.40;;;25.20;99.90;;;;;;4976175;28;20444;-72
2023/07/09 06:28:26;;;;;;;33.88;31.67;;;25.40;99.90;;;;;;4975753;28;20592;-74
2023/07/09 06:30:52;;;;;;;33.13;31.02;;;25.40;99.90;;;;;;4971566;28;20058;-75
2023/07/09 06:33:20;;;;;;;33.55;31.35;;;25.20;99.90;;;;;;4975917;28;20031;-72
2023/07/09 06:35:52;;;;;;;32.70;30.70;;;25.20;99.90;;;;;;4970653;28;20110;-73
2023/07/09 06:38:19;;;;;;;33.30;30.98;;;25.40;99.90;;;;;;4982490;28;20132;-73
2023/07/09 06:40:46;;;;;;;33.25;31.05;;;25.80;99.90;;;;;;4971267;28;20077;-75
2023/07/09 06:43:13;;;;;;;33.92;31.67;;;26.20;99.90;;;;;;4975049;28;20047;-74
2023/07/09 06:45:56;;;;;;;34.25;32.03;;;26.70;99.90;;;;;;4973175;28;20042;-74
2023/07/09 06:48:25;;;;;;;34.67;32.33;;;27.20;99.90;;;;;;4971901;28;20137;-75
2023/07/09 06:50:53;;;;;;;35.33;32.88;;;27.70;99.90;;;;;;4969128;28;20046;-74
2023/07/09 06:53:21;;;;;;;36.00;33.70;;;27.90;99.90;;;;;;4974099;28;20043;-74
2023/07/09 06:55:48;;;;;;;36.17;33.58;;;28.30;99.90;;;;;;4966542;28;20492;-73
2023/07/09 06:58:17;;;;;;;36.63;34.28;;;28.30;99.90;;;;;;4969862;28;20049;-74
2023/07/09 07:00:44;;;;;;;36.00;33.67;;;28.60;99.90;;;;;;4972550;28;20138;-72
2023/07/09 07:03:12;;;;;;;36.83;34.53;;;28.70;99.90;;;;;;4972449;28;20100;-71
2023/07/09 07:05:44;;;;;;;36.95;34.65;;;28.80;99.90;;;;;;4970791;28;20042;-75
2023/07/09 07:08:15;;;;;;;38.05;35.45;;;28.70;99.90;;;;;;4976751;28;20058;-75
2023/07/09 07:10:42;;;;;;;37.88;35.40;;;28.60;99.90;;;;;;4969149;28;20046;-72
2023/07/09 07:13:10;;;;;;;38.45;35.75;;;28.70;99.90;;;;;;4983085;28;20514;-71
2023/07/09 07:15:38;;;;;;;36.70;34.35;;;28.70;99.90;;;;;;4975424;28;20062;-74
2023/07/09 07:18:05;;;;;;;39.17;36.58;;;29.00;99.90;;;;;;4971765;28;20038;-72
2023/07/09 07:20:33;;;;;;;38.20;35.85;;;29.40;99.90;;;;;;4974403;28;20073;-71
2023/07/09 07:23:00;;;;;;;38.63;36.22;;;29.60;99.90;;;;;;4974924;28;20148;-74
2023/07/09 07:25:27;;;;;;;39.15;36.65;;;29.70;99.90;;;;;;4985582;28;20057;-74
2023/07/09 07:27:54;;;;;;;39.75;37.35;;;30.10;99.90;;;;;;4998811;28;20052;-71
2023/07/09 07:30:21;;;;;;;41.28;38.78;;;30.50;99.90;;;;;;5000593;28;20029;-73
2023/07/09 07:32:51;;;;;;;40.95;38.55;;;30.10;99.90;;;;;;4990284;28;20050;-74
2023/07/09 07:35:19;;;;;;;42.20;39.65;;;30.00;99.90;;;;;;4976967;28;21353;-74
2023/07/09 07:37:45;;;;;;;40.78;38.22;;;30.10;99.90;;;;;;4980012;28;20124;-72
2023/07/09 07:40:12;;;;;;;41.70;39.10;;;30.20;99.90;;;;;;4974994;28;20714;-74
2023/07/09 07:42:39;;;;;;;41.90;39.13;;;30.40;99.90;;;;;;4970602;28;20046;-75
2023/07/09 07:45:07;;;;;;;42.47;39.97;;;30.60;99.90;;;;;;4974270;28;20054;-74
2023/07/09 07:47:34;;;;;;;41.85;39.45;;;30.70;99.90;;;;;;4969822;28;20145;-74
2023/07/09 07:50:05;;;;;;;41.97;39.30;;;30.80;99.90;;;;;;4975772;28;20133;-74
2023/07/09 07:52:32;;;;;;;42.85;40.15;;;30.70;99.90;;;;;;4979579;28;20047;-75
2023/07/09 07:55:00;;;;;;;42.53;39.72;;;30.50;99.90;;;;;;4976045;28;20050;-73
2023/07/09 07:57:27;;;;;;;43.90;41.15;;;30.70;99.90;;;;;;4974501;28;20042;-73
2023/07/09 07:59:54;;;;;;;43.90;41.15;;;30.40;99.90;;;;;;4978341;28;20776;-74
2023/07/09 08:02:21;;;;;;;43.45;40.75;;;30.40;99.90;;;;;;4971929;28;20661;-74
2023/07/09 08:04:47;;;;;;;44.10;41.22;;;30.60;99.90;;;;;;4968374;28;20520;-74
2023/07/09 08:07:14;;;;;;;45.80;43.10;;;30.90;99.90;;;;;;4968442;28;20043;-75
2023/07/09 08:09:41;;;;;;;45.33;42.63;;;31.20;99.90;;;;;;4971033;28;20129;-74
2023/07/09 08:12:11;;;;;;;46.17;43.63;;;31.30;99.90;;;;;;4978302;28;20475;-75
2023/07/09 08:14:44;;;;;;;46.60;43.90;;;31.60;99.90;;;;;;4972297;28;20042;-72
2023/07/09 08:17:11;;;;;;;46.97;44.28;;;31.60;99.90;;;;;;4975014;28;20111;-72
2023/07/09 08:19:51;;;;;;;48.88;45.95;;;31.50;99.90;;;;;;4978155;28;20042;-73
2023/07/09 08:22:20;;;;;;;48.83;45.75;;;31.50;99.90;;;;;;4974942;28;20038;-75
2023/07/09 08:24:48;;;;;;;48.47;45.38;;;31.80;99.90;;;;;;4971351;28;20130;-73
2023/07/09 08:27:15;;;;;;;49.22;46.15;;;32.10;99.90;;;;;;4958977;28;20073;-74
2023/07/09 08:29:42;;;;;;;46.95;44.10;;;32.20;99.90;;;;;;4969561;28;20089;-71
2023/07/09 08:32:10;;;;;;;48.78;45.78;;;32.40;99.90;;;;;;4993158;28;20488;-74
2023/07/09 08:34:39;;;;;;;49.63;46.55;;;31.70;99.90;;;;;;4985965;28;20038;-75
2023/07/09 08:37:26;;;;;;;48.22;45.22;;;31.80;99.90;;;;;;4996803;28;20042;-73
2023/07/09 08:39:53;;;;;;;49.67;46.75;;;31.60;99.90;;;;;;4991364;28;20046;-73
2023/07/09 08:42:31;;;;;;;47.85;45.05;;;32.30;99.90;;;;;;4993009;28;20700;-74
2023/07/09 08:45:24;;;;;;;48.20;45.33;;;32.80;99.90;;;;;;4996038;28;20034;-73
2023/07/09 08:48:01;;;;;;;50.35;47.55;;;33.10;99.90;;;;;;4995163;28;20054;-74
2023/07/09 08:50:52;;;;;;;51.20;48.08;;;33.10;99.90;;;;;;4998930;28;20146;-75
2023/07/09 08:53:39;;;;;;;48.88;45.85;;;32.40;99.90;;;;;;5001230;28;20512;-75
2023/07/09 08:56:09;;;;;;;51.78;48.83;;;32.40;99.90;;;;;;5000100;28;20128;-74
2023/07/09 08:58:38;;;;;;;53.10;50.00;;;32.70;99.90;;;;;;4993530;28;20099;-73
2023/07/09 09:01:12;;;;;;;51.47;48.40;;;32.80;99.90;;;;;;4991938;28;20100;-73
2023/07/09 09:03:47;;;;;;;51.47;48.30;;;32.70;99.90;;;;;;4995070;28;20053;-72
2023/07/09 09:06:24;;;;;;;51.22;48.17;;;33.20;99.90;;;;;;4996060;28;20054;-71
2023/07/09 09:09:22;;;;;;;50.55;47.67;;;33.70;99.90;;;;;;4995367;28;20057;-72
2023/07/09 09:12:03;;;;;;;51.58;48.58;;;33.40;99.90;;;;;;4993816;28;20050;-73
2023/07/09 09:14:45;;;;;;;49.22;46.13;;;33.40;99.90;;;;;;4993159;28;20108;-72
2023/07/09 09:17:20;;;;;;;50.05;47.05;;;33.80;99.90;;;;;;4995431;28;20138;-73
2023/07/09 09:19:59;;;;;;;53.55;50.33;;;34.00;99.90;;;;;;4990946;28;20137;-71
2023/07/09 09:22:44;;;;;;;52.65;49.45;;;34.40;99.90;;;;;;4991444;28;20033;-71
2023/07/09 09:25:32;;;;;;;55.55;52.15;;;34.50;99.90;;;;;;4996664;28;20056;-74
2023/07/09 09:28:00;;;;;;;55.65;51.95;;;34.40;99.90;;;;;;4989774;28;20536;-74
2023/07/09 09:30:28;;;;;;;56.15;52.85;;;34.30;99.90;;;;;;4991667;28;20527;-74
2023/07/09 09:33:01;;;;;;;52.80;49.72;;;34.40;99.90;;;;;;4994187;28;20050;-74
2023/07/09 09:35:34;;;;;;;48.20;45.10;;;34.30;99.90;;;;;;4998039;28;20053;-72
2023/07/09 09:38:02;;;;;;;53.15;50.03;;;34.40;99.90;;;;;;4994377;28;20652;-72
2023/07/09 09:40:34;;;;;;;54.53;51.17;;;34.60;99.90;;;;;;5000898;28;20100;-73
2023/07/09 09:43:03;;;;;;;53.42;50.33;;;34.40;99.90;;;;;;4997704;28;20148;-73
2023/07/09 09:45:35;;;;;;;54.28;50.97;;;34.20;99.90;;;;;;4996189;28;20049;-75
2023/07/09 09:48:16;;;;;;;53.88;50.65;;;34.40;99.90;;;;;;5003882;28;20052;-74
2023/07/09 09:50:45;;;;;;;56.15;52.95;;;34.50;99.90;;;;;;4995590;28;20699;-73
2023/07/09 09:53:24;;;;;;;54.08;50.78;;;34.60;99.90;;;;;;4999149;28;20132;-73
2023/07/09 09:55:53;;;;;;;54.72;51.38;;;34.40;99.90;;;;;;4998823;28;20066;-73
2023/07/09 09:58:20;;;;;;;56.67;53.38;;;34.30;99.90;;;;;;4999112;28;20046;-74
2023/07/09 10:00:52;;;;;;;55.90;52.38;;;34.10;99.90;;;;;;4993657;28;20669;-73
2023/07/09 10:03:19;;;;;;;56.75;53.17;;;34.10;99.90;;;;;;4995249;28;20041;-73
2023/07/09 10:05:58;;;;;;;55.90;52.45;;;34.10;99.90;;;;;;4992261;28;20121;-71
2023/07/09 10:09:02;;;;;;;55.50;52.30;;;34.10;99.90;;;;;;5001010;28;20057;-72
2023/07/09 10:11:38;;;;;;;58.63;54.87;;;34.20;99.90;;;;;;4995789;28;20037;-73
2023/07/09 10:14:15;;;;;;;57.25;53.83;;;34.30;99.90;;;;;;4994407;28;20504;-73
2023/07/09 10:16:49;;;;;;;56.88;53.28;;;34.10;99.90;;;;;;4999842;28;20591;-72
2023/07/09 10:19:32;;;;;;;56.25;52.70;;;34.20;99.90;;;;;;4995096;28;20691;-73
2023/07/09 10:22:14;;;;;;;56.22;52.85;;;34.10;99.90;;;;;;5001069;28;20129;-74
2023/07/09 10:25:05;;;;;;;55.63;52.42;;;34.00;99.90;;;;;;4996825;28;20050;-73
2023/07/09 10:27:45;;;;;;;56.25;52.80;;;34.10;99.90;;;;;;4998688;28;20061;-74
2023/07/09 10:30:27;;;;;;;55.22;51.78;;;34.20;99.90;;;;;;4995932;28;20128;-73
2023/07/09 10:33:03;;;;;;;54.90;51.72;;;34.50;99.90;;;;;;4987400;28;20145;-74
2023/07/09 10:35:54;;;;;;;54.10;50.80;;;34.70;99.90;;;;;;4986906;28;20072;-72
2023/07/09 10:38:40;;;;;;;55.55;52.40;;;34.90;99.90;;;;;;4984286;28;20042;-73
2023/07/09 10:41:11;;;;;;;56.38;52.88;;;35.00;99.90;;;;;;4991820;28;20049;-73
2023/07/09 10:44:06;;;;;;;54.45;51.22;;;34.70;99.90;;;;;;4990322;28;20050;-73
2023/07/09 10:46:37;;;;;;;57.95;54.45;;;34.90;99.90;;;;;;4987967;28;20100;-73
2023/07/09 10:49:08;;;;;;;56.88;53.50;;;34.80;99.90;;;;;;4985916;28;20061;-72
2023/07/09 10:51:40;;;;;;;55.90;52.45;;;34.90;99.90;;;;;;4987749;28;20057;-74
2023/07/09 10:54:18;;;;;;;55.50;52.25;;;35.00;99.90;;;;;;4987202;28;20047;-74
2023/07/09 10:56:51;;;;;;;57.55;53.85;;;35.20;99.90;;;;;;4981439;28;20042;-73
2023/07/09 10:59:37;;;;;;;58.13;54.55;;;35.30;99.90;;;;;;4984388;28;20124;-75
2023/07/09 11:02:25;;;;;;;56.50;53.28;;;35.40;99.90;;;;;;4990560;28;20070;-74
2023/07/09 11:04:57;;;;;;;56.78;53.50;;;35.30;99.90;;;;;;4989004;28;20334;-74
2023/07/09 11:07:31;;;;;;;56.78;53.03;;;34.90;99.90;;;;;;4986662;28;20143;-73
2023/07/09 11:10:00;;;;;;;57.53;54.10;;;34.80;99.90;;;;;;4984236;28;20054;-74
2023/07/09 11:12:39;;;;;;;56.55;53.35;;;34.80;99.90;;;;;;4982084;28;20046;-73
2023/07/09 11:15:12;;;;;;;59.40;55.95;;;34.90;99.90;;;;;;4985505;28;20641;-73
2023/07/09 11:17:44;;;;;;;59.35;55.83;;;34.60;99.90;;;;;;4988033;28;20049;-73
2023/07/09 11:20:24;;;;;;;59.83;56.05;;;34.20;99.90;;;;;;4987861;28;20057;-72
2023/07/09 11:23:04;;;;;;;56.75;53.38;;;34.10;99.90;;;;;;4987429;28;20106;-72
2023/07/09 11:25:49;;;;;;;57.38;53.92;;;34.40;99.90;;;;;;4999361;28;20053;-73
2023/07/09 11:28:16;;;;;;;56.38;53.17;;;34.50;99.90;;;;;;5012178;28;20478;-72
2023/07/09 11:30:47;;;;;;;55.80;52.70;;;34.80;99.90;;;;;;4999227;28;20034;-74
2023/07/09 11:33:29;;;;;;;55.83;52.63;;;35.00;99.90;;;;;;4990013;28;20061;-73
2023/07/09 11:36:11;;;;;;;57.33;54.03;;;35.20;99.90;;;;;;4972309;28;20555;-73
2023/07/09 11:38:47;;;;;;;56.63;53.33;;;35.40;99.90;;;;;;4988742;28;20050;-73
2023/07/09 11:41:47;;;;;;;56.75;53.13;;;35.70;99.90;;;;;;4987819;28;20041;-73
2023/07/09 11:44:20;;;;;;;57.80;53.83;;;35.90;99.90;;;;;;4975510;28;20038;-73
2023/07/09 11:47:15;;;;;;;58.60;55.10;;;36.00;99.90;;;;;;4992385;28;20076;-72
2023/07/09 11:49:58;;;;;;;54.83;51.63;;;36.10;99.90;;;;;;4985240;28;20413;-73
2023/07/09 11:52:40;;;;;;;55.22;51.88;;;36.00;99.90;;;;;;4984485;28;20136;-72
2023/07/09 11:55:19;;;;;;;57.17;53.65;;;35.80;99.90;;;;;;4984815;28;20062;-73
2023/07/09 11:57:57;;;;;;;57.83;54.58;;;35.80;99.90;;;;;;4988508;28;20408;-72
2023/07/09 12:00:40;;;;;;;55.33;52.10;;;35.80;99.90;;;;;;4981619;28;20046;-73
2023/07/09 12:03:28;;;;;;;57.80;54.20;;;35.80;99.90;;;;;;4982829;28;20045;-73
2023/07/09 12:06:00;;;;;;;56.40;53.10;;;35.50;99.90;;;;;;4986098;28;20038;-73
2023/07/09 12:08:29;;;;;;;59.22;55.20;;;35.70;99.90;;;;;;4983451;28;20038;-74
2023/07/09 12:10:55;;;;;;;56.10;52.60;;;35.60;99.90;;;;;;4982384;28;20045;-73
2023/07/09 12:13:22;;;;;;;57.22;53.75;;;35.80;99.90;;;;;;4989983;28;20707;-74
2023/07/09 12:15:49;;;;;;;56.05;52.85;;;35.40;99.90;;;;;;4979704;28;20121;-73
2023/07/09 12:18:16;;;;;;;57.13;53.70;;;35.00;99.90;;;;;;4984191;28;20563;-73
2023/07/09 12:20:53;;;;;;;56.40;53.15;;;34.90;99.90;;;;;;4985899;28;20515;-73
2023/07/09 12:23:22;;;;;;;57.90;54.20;;;35.20;99.90;;;;;;4991248;28;20747;-72
2023/07/09 12:25:51;;;;;;;57.25;54.05;;;35.40;99.90;;;;;;4990504;28;20081;-73
2023/07/09 12:28:19;;;;;;;56.80;52.85;;;35.30;99.80;;;;;;4987298;28;20123;-74
2023/07/09 12:30:51;;;;;;;59.42;55.80;;;35.40;99.90;;;;;;4989360;28;20101;-74
2023/07/09 12:33:25;;;;;;;58.63;54.80;;;35.40;99.90;;;;;;4995495;28;20568;-75
2023/07/09 12:36:05;;;;;;;55.05;51.63;;;35.00;99.90;;;;;;4989334;28;20524;-72
2023/07/09 12:38:43;;;;;;;55.83;52.67;;;35.10;99.90;;;;;;4993839;28;20696;-73
2023/07/09 12:41:24;;;;;;;56.67;53.28;;;35.30;99.80;;;;;;4996154;28;20077;-73
2023/07/09 12:43:53;;;;;;;55.58;52.28;;;35.40;99.90;;;;;;4994736;28;20042;-73
2023/07/09 12:46:24;;;;;;;56.95;53.72;;;35.60;99.70;;;;;;4982231;28;20117;-72
2023/07/09 12:48:52;;;;;;;53.30;49.90;;;35.70;99.90;;;;;;4992825;28;20054;-73